Petange, Luxembourg
Current Conditions -  °F | °C
As of 5:20 AM on Wednesday 28 Jan 2015 (Local Time) from ELLX Reporting Station
Moderate Fog Moderate Fog  
Wind Chill: 29°   Ceiling: 100
Heat Index: 34°   Visibility: 0.25mi
Dew Point: 34°   Wind: 6mph
Humidity: 100%   Direction: 200°SSW
Pressure: 30.06"   Gusts: NA
Location:  49.56°N, 5.88°E
Report Text: ELLX 280420Z 20005KT 170V240 0400 R24/1100VP1500U FG BKN001 01/01 Q1018 NOSIG
Loading
Personal Weather Stations






























Interactive Weather Map New forecast layout! Learn more

10-Day Weather Forecast

Advertisements
Track Severe Weather on mobile